Time;durP1;ratioP1;P1;durP2;ratioP2;P2;SDS_P1;SDS_P2;PMS_P1;PMS_P2;Temp;Humidity;BMP_temperature;BMP_pressure;BME280_temperature;BME280_humidity;BME280_pressure;Samples;Min_cycle;Max_cycle;Signal;HPM_P1;HPM_P2
2023/10/13 00:01:58;;;;;;;;;10.60;10.60;;;;;;;;5027774;28;9016;-79
2023/10/13 00:04:26;;;;;;;;;13.40;11.60;;;;;;;;5028354;28;8887;-78
2023/10/13 00:06:56;;;;;;;;;10.20;8.60;;;;;;;;5028370;28;8860;-78
2023/10/13 00:09:25;;;;;;;;;8.60;8.60;;;;;;;;5028792;28;8860;-78
2023/10/13 00:11:53;;;;;;;;;9.60;9.60;;;;;;;;5030828;28;8957;-78
2023/10/13 00:14:21;;;;;;;;;9.40;9.40;;;;;;;;5028397;28;8887;-78
2023/10/13 00:17:03;;;;;;;;;9.60;8.00;;;;;;;;5026796;28;8859;-78
2023/10/13 00:19:37;;;;;;;;;10.80;10.80;;;;;;;;5028064;28;8895;-78
2023/10/13 00:22:12;;;;;;;;;10.80;9.60;;;;;;;;5028565;28;8848;-78
2023/10/13 00:24:51;;;;;;;;;12.40;11.00;;;;;;;;5027811;28;8958;-79
2023/10/13 00:30:17;;;;;;;;;11.80;11.20;;;;;;;;5027859;28;8938;-78
2023/10/13 00:32:46;;;;;;;;;11.60;10.00;;;;;;;;5027567;28;8929;-78
2023/10/13 00:35:24;;;;;;;;;7.00;6.60;;;;;;;;5028417;28;8884;-79
2023/10/13 00:37:54;;;;;;;;;10.00;10.00;;;;;;;;5028603;28;8856;-78
2023/10/13 00:40:41;;;;;;;;;9.40;9.40;;;;;;;;5029201;28;8890;-78
2023/10/13 00:45:58;;;;;;;;;8.40;8.40;;;;;;;;5031129;28;8860;-79
2023/10/13 00:48:29;;;;;;;;;11.80;10.00;;;;;;;;5031967;28;8860;-78
2023/10/13 00:50:59;;;;;;;;;12.60;9.40;;;;;;;;5030969;28;9047;-79
2023/10/13 00:53:28;;;;;;;;;11.60;9.80;;;;;;;;5031769;28;8945;-78
2023/10/13 00:55:55;;;;;;;;;5.80;5.80;;;;;;;;5029704;28;9636;-79
2023/10/13 00:58:25;;;;;;;;;8.60;7.40;;;;;;;;5023503;28;8880;-78
2023/10/13 01:00:56;;;;;;;;;10.80;9.80;;;;;;;;5026981;28;8808;-78
2023/10/13 01:03:26;;;;;;;;;8.60;6.80;;;;;;;;5028175;28;8946;-78
2023/10/13 01:05:55;;;;;;;;;7.20;7.20;;;;;;;;5027303;28;8967;-78
2023/10/13 01:08:37;;;;;;;;;8.40;8.40;;;;;;;;5027518;28;8870;-78
2023/10/13 01:11:06;;;;;;;;;9.60;8.60;;;;;;;;5028047;28;8954;-79
2023/10/13 01:13:36;;;;;;;;;8.20;6.60;;;;;;;;5027425;28;8844;-78
2023/10/13 01:16:02;;;;;;;;;9.20;9.20;;;;;;;;5027982;28;9798;-79
2023/10/13 01:18:30;;;;;;;;;5.80;5.80;;;;;;;;5026168;28;8856;-78
2023/10/13 01:20:59;;;;;;;;;8.20;8.20;;;;;;;;5027789;28;8898;-78
2023/10/13 01:23:37;;;;;;;;;9.60;8.60;;;;;;;;5026912;28;8868;-78
2023/10/13 01:26:05;;;;;;;;;3.60;3.60;;;;;;;;5027807;28;8863;-78
2023/10/13 01:28:44;;;;;;;;;8.20;6.80;;;;;;;;5027296;28;8860;-78
2023/10/13 01:31:12;;;;;;;;;7.00;7.00;;;;;;;;5026697;28;8817;-77
2023/10/13 01:33:39;;;;;;;;;10.20;8.00;;;;;;;;5027961;28;8867;-78
2023/10/13 01:36:09;;;;;;;;;9.80;9.80;;;;;;;;5027422;28;9631;-79
2023/10/13 01:38:38;;;;;;;;;9.40;8.60;;;;;;;;5027847;28;8867;-78
2023/10/13 01:41:08;;;;;;;;;10.00;10.00;;;;;;;;5031399;28;8991;-78
2023/10/13 01:43:36;;;;;;;;;10.40;9.20;;;;;;;;5031127;28;8983;-78
2023/10/13 01:46:03;;;;;;;;;10.80;10.80;;;;;;;;5031330;28;8910;-78
2023/10/13 01:48:33;;;;;;;;;6.60;6.60;;;;;;;;5030865;28;8856;-79
2023/10/13 01:51:02;;;;;;;;;8.80;7.00;;;;;;;;5032425;28;8848;-77
2023/10/13 01:53:29;;;;;;;;;11.80;10.80;;;;;;;;5032627;28;8864;-78
2023/10/13 01:55:57;;;;;;;;;12.20;9.80;;;;;;;;5031260;28;8849;-78
2023/10/13 01:58:26;;;;;;;;;8.40;8.40;;;;;;;;5030484;28;9020;-78
2023/10/13 02:00:56;;;;;;;;;8.80;8.80;;;;;;;;5030669;28;8780;-78
2023/10/13 02:03:24;;;;;;;;;12.20;8.80;;;;;;;;5031192;28;8975;-78
2023/10/13 02:05:57;;;;;;;;;12.80;8.80;;;;;;;;5029583;28;9597;-78
2023/10/13 02:08:24;;;;;;;;;11.80;10.60;;;;;;;;5030514;28;8848;-79
2023/10/13 02:10:51;;;;;;;;;8.20;8.20;;;;;;;;5030857;28;8864;-78
2023/10/13 02:13:23;;;;;;;;;13.00;10.00;;;;;;;;5030126;28;8910;-77
2023/10/13 02:15:53;;;;;;;;;8.40;7.00;;;;;;;;5030651;28;9217;-78
2023/10/13 02:18:25;;;;;;;;;11.80;8.60;;;;;;;;5030312;28;8840;-78
2023/10/13 02:20:54;;;;;;;;;9.80;8.00;;;;;;;;5032430;28;8930;-77
2023/10/13 02:23:22;;;;;;;;;13.20;9.60;;;;;;;;5020283;28;8886;-79
2023/10/13 02:25:52;;;;;;;;;10.00;9.60;;;;;;;;5031314;28;8902;-78
2023/10/13 02:28:28;;;;;;;;;10.60;9.80;;;;;;;;5033278;28;8876;-78
2023/10/13 02:30:54;;;;;;;;;10.80;9.20;;;;;;;;5032704;28;8816;-78
2023/10/13 02:33:22;;;;;;;;;10.80;9.00;;;;;;;;5034110;28;8852;-78
2023/10/13 02:35:53;;;;;;;;;11.40;11.00;;;;;;;;5033850;28;8975;-78
2023/10/13 02:38:28;;;;;;;;;10.40;10.40;;;;;;;;5030422;28;8860;-78
2023/10/13 02:40:56;;;;;;;;;11.40;8.00;;;;;;;;5029600;28;8851;-78
2023/10/13 02:43:25;;;;;;;;;9.40;9.40;;;;;;;;5030112;28;9680;-78
2023/10/13 02:45:58;;;;;;;;;10.60;10.60;;;;;;;;5028884;28;8852;-78
2023/10/13 02:48:26;;;;;;;;;10.80;10.80;;;;;;;;5029321;28;8891;-77
2023/10/13 02:51:01;;;;;;;;;9.60;9.60;;;;;;;;5029714;28;8864;-78
2023/10/13 02:53:29;;;;;;;;;13.60;10.40;;;;;;;;5029579;28;8876;-78
2023/10/13 02:56:05;;;;;;;;;11.20;10.20;;;;;;;;5029549;28;8863;-77
2023/10/13 02:58:38;;;;;;;;;9.00;8.80;;;;;;;;5030472;28;8860;-78
2023/10/13 03:01:16;;;;;;;;;12.60;10.80;;;;;;;;5029289;28;8796;-77
2023/10/13 03:03:47;;;;;;;;;12.40;12.40;;;;;;;;5029153;28;8868;-78
2023/10/13 03:06:15;;;;;;;;;11.00;10.00;;;;;;;;5029276;28;8842;-77
2023/10/13 03:08:43;;;;;;;;;9.40;9.40;;;;;;;;5017110;28;8856;-78
2023/10/13 03:11:11;;;;;;;;;14.00;11.40;;;;;;;;5029076;28;9701;-78
2023/10/13 03:13:44;;;;;;;;;11.80;10.60;;;;;;;;5029719;28;8945;-78
2023/10/13 03:16:16;;;;;;;;;12.20;12.00;;;;;;;;5028867;28;9608;-77
2023/10/13 03:18:53;;;;;;;;;10.60;10.60;;;;;;;;5029207;28;8852;-78
2023/10/13 03:21:31;;;;;;;;;9.60;9.60;;;;;;;;5029004;28;8875;-78
2023/10/13 03:24:06;;;;;;;;;11.60;10.60;;;;;;;;5029399;28;8864;-77
2023/10/13 03:26:36;;;;;;;;;13.80;12.20;;;;;;;;5029728;28;9217;-77
2023/10/13 03:29:08;;;;;;;;;15.40;12.40;;;;;;;;5028723;28;8848;-77
2023/10/13 03:31:39;;;;;;;;;20.20;12.60;;;;;;;;5028442;28;8824;-78
2023/10/13 03:34:11;;;;;;;;;12.00;10.40;;;;;;;;5029391;28;8968;-78
2023/10/13 03:36:57;;;;;;;;;10.80;9.40;;;;;;;;5029247;28;8883;-78
2023/10/13 03:39:33;;;;;;;;;11.00;8.20;;;;;;;;5027854;28;8871;-78
2023/10/13 03:42:05;;;;;;;;;17.20;11.60;;;;;;;;5026931;28;8888;-78
2023/10/13 03:44:38;;;;;;;;;12.20;11.80;;;;;;;;5028812;28;8886;-79
2023/10/13 03:47:18;;;;;;;;;10.40;10.40;;;;;;;;5027948;28;8848;-78
2023/10/13 03:49:45;;;;;;;;;12.80;11.60;;;;;;;;5028285;28;8863;-78
2023/10/13 03:52:13;;;;;;;;;13.20;10.40;;;;;;;;5028417;28;8852;-77
2023/10/13 03:54:41;;;;;;;;;9.40;9.40;;;;;;;;5028874;28;8883;-78
2023/10/13 03:57:12;;;;;;;;;12.80;9.80;;;;;;;;5027876;28;8852;-78
2023/10/13 03:59:46;;;;;;;;;10.40;8.80;;;;;;;;5027857;28;8874;-78
2023/10/13 04:02:18;;;;;;;;;9.20;9.20;;;;;;;;5028565;28;8812;-79
2023/10/13 04:04:49;;;;;;;;;11.00;8.80;;;;;;;;5030479;28;8860;-78
2023/10/13 04:15:36;;;;;;;;;13.80;13.20;;;;;;;;5009645;28;8866;-80
2023/10/13 04:18:14;;;;;;;;;14.40;11.20;;;;;;;;5028801;28;8990;-81
2023/10/13 04:20:46;;;;;;;;;13.00;13.00;;;;;;;;5032687;28;8988;-81
2023/10/13 04:23:25;;;;;;;;;10.60;10.60;;;;;;;;5023676;28;8986;-79
2023/10/13 04:26:21;;;;;;;;;10.80;10.00;;;;;;;;5023633;28;8870;-78
2023/10/13 04:28:56;;;;;;;;;16.60;12.00;;;;;;;;5028731;28;8860;-78
2023/10/13 04:34:15;;;;;;;;;13.80;13.80;;;;;;;;5023999;28;8941;-79
2023/10/13 04:36:45;;;;;;;;;13.60;11.20;;;;;;;;5027147;28;8856;-79
2023/10/13 04:39:29;;;;;;;;;14.40;13.60;;;;;;;;5027753;28;8868;-79
2023/10/13 04:41:58;;;;;;;;;13.00;11.00;;;;;;;;5027610;28;8860;-79
2023/10/13 04:47:21;;;;;;;;;9.20;9.00;;;;;;;;5027532;28;9639;-78
2023/10/13 04:49:51;;;;;;;;;14.20;12.40;;;;;;;;5028219;28;8853;-78
2023/10/13 04:55:09;;;;;;;;;14.40;12.80;;;;;;;;5026870;28;8929;-79
2023/10/13 04:57:46;;;;;;;;;12.80;11.00;;;;;;;;5026942;28;8911;-79
2023/10/13 05:03:51;;;;;;;;;10.00;10.00;;;;;;;;5027251;28;8832;-78
2023/10/13 05:45:36;;;;;;;;;11.40;11.40;;;;;;;;5031062;28;8998;-72
2023/10/13 05:48:11;;;;;;;;;12.40;10.80;;;;;;;;5030987;28;8981;-75
2023/10/13 05:51:32;;;;;;;;;10.60;10.40;;;;;;;;5032516;28;8872;-73
2023/10/13 06:29:21;;;;;;;;;14.75;14.75;;;;;;;;5029969;28;8840;-76
2023/10/13 06:31:49;;;;;;;;;15.00;14.50;;;;;;;;5029270;28;8808;-77
2023/10/13 06:34:16;;;;;;;;;15.00;14.75;;;;;;;;5029023;28;8870;-76
2023/10/13 06:36:47;;;;;;;;;15.60;15.60;;;;;;;;5027557;28;8994;-76
2023/10/13 06:39:35;;;;;;;;;13.60;13.60;;;;;;;;5027840;28;9622;-77
2023/10/13 06:42:04;;;;;;;;;12.00;10.20;;;;;;;;5028694;28;8999;-78
2023/10/13 06:44:34;;;;;;;;;13.40;13.40;;;;;;;;5030025;28;8852;-79
2023/10/13 06:47:04;;;;;;;;;15.40;13.80;;;;;;;;5029679;28;8891;-77
2023/10/13 06:49:36;;;;;;;;;19.75;18.75;;;;;;;;5029101;28;8933;-77
2023/10/13 06:52:06;;;;;;;;;14.80;14.20;;;;;;;;5029146;28;8863;-76
2023/10/13 06:54:35;;;;;;;;;13.50;13.50;;;;;;;;5029115;28;8929;-78
2023/10/13 06:57:06;;;;;;;;;13.40;13.20;;;;;;;;5028395;28;8883;-78
2023/10/13 06:59:36;;;;;;;;;15.00;15.00;;;;;;;;5028925;28;8865;-75
2023/10/13 07:02:06;;;;;;;;;13.80;13.80;;;;;;;;5028058;28;8824;-76
2023/10/13 07:04:39;;;;;;;;;15.80;13.80;;;;;;;;5028481;28;8867;-76
2023/10/13 07:07:10;;;;;;;;;15.60;13.40;;;;;;;;5017369;28;8867;-77
2023/10/13 07:09:40;;;;;;;;;15.80;13.80;;;;;;;;5028721;28;8959;-76
2023/10/13 07:12:16;;;;;;;;;14.40;14.00;;;;;;;;5028615;28;8856;-77
2023/10/13 07:14:52;;;;;;;;;14.00;14.00;;;;;;;;5028482;28;8986;-77
2023/10/13 07:17:23;;;;;;;;;12.40;12.40;;;;;;;;5028717;28;9789;-75
2023/10/13 07:19:54;;;;;;;;;13.80;12.40;;;;;;;;5028435;28;8892;-75
2023/10/13 07:22:25;;;;;;;;;14.00;13.80;;;;;;;;5028686;28;8897;-74
2023/10/13 07:24:53;;;;;;;;;13.60;13.60;;;;;;;;5029139;28;8856;-76
2023/10/13 07:27:25;;;;;;;;;16.00;15.00;;;;;;;;5028123;28;8852;-81
2023/10/13 07:30:06;;;;;;;;;14.20;13.60;;;;;;;;5020944;28;9690;-76
2023/10/13 07:32:34;;;;;;;;;13.00;11.00;;;;;;;;5031958;28;8793;-75
2023/10/13 07:35:11;;;;;;;;;14.00;14.00;;;;;;;;5032252;28;8991;-75
2023/10/13 07:37:41;;;;;;;;;16.20;14.00;;;;;;;;5028892;28;8856;-75
2023/10/13 07:40:22;;;;;;;;;15.60;14.40;;;;;;;;5032696;28;8892;-75
2023/10/13 07:42:59;;;;;;;;;15.00;13.40;;;;;;;;5018220;28;8961;-74
2023/10/13 07:45:35;;;;;;;;;14.40;14.40;;;;;;;;5027398;28;8866;-74
2023/10/13 07:48:07;;;;;;;;;14.60;14.60;;;;;;;;5028472;28;8836;-75
2023/10/13 07:50:35;;;;;;;;;15.20;14.20;;;;;;;;5027622;28;8890;-75
2023/10/13 07:53:18;;;;;;;;;14.20;14.20;;;;;;;;5028185;28;8860;-74
2023/10/13 07:55:46;;;;;;;;;16.60;13.40;;;;;;;;5018180;28;8870;-74
2023/10/13 07:58:17;;;;;;;;;14.00;14.00;;;;;;;;5030045;28;8840;-77
2023/10/13 08:00:53;;;;;;;;;17.00;14.60;;;;;;;;5027838;28;8784;-75
2023/10/13 08:03:35;;;;;;;;;15.60;15.60;;;;;;;;5027090;28;8868;-73
2023/10/13 08:06:06;;;;;;;;;15.20;13.80;;;;;;;;5027818;28;8848;-74
2023/10/13 08:08:38;;;;;;;;;17.80;14.80;;;;;;;;5026980;28;8864;-74
2023/10/13 08:11:24;;;;;;;;;14.00;13.60;;;;;;;;5027685;28;9662;-75
2023/10/13 08:13:55;;;;;;;;;13.40;12.80;;;;;;;;5017856;28;8867;-75
2023/10/13 08:16:30;;;;;;;;;13.20;12.80;;;;;;;;5027239;28;8840;-73
2023/10/13 08:19:01;;;;;;;;;16.60;15.60;;;;;;;;5027649;28;9634;-75
2023/10/13 08:21:31;;;;;;;;;13.80;12.80;;;;;;;;5026730;28;8872;-76
2023/10/13 08:24:05;;;;;;;;;13.40;13.40;;;;;;;;5027408;28;8876;-74
2023/10/13 08:32:22;;;;;;;;;14.40;14.40;;;;;;;;5015797;28;8828;-75
2023/10/13 08:35:22;;;;;;;;;15.00;15.00;;;;;;;;5016318;28;8852;-74
2023/10/13 08:37:59;;;;;;;;;13.20;13.20;;;;;;;;5022263;28;8880;-74
2023/10/13 08:43:13;;;;;;;;;12.60;12.60;;;;;;;;5027833;28;8844;-76
2023/10/13 08:45:58;;;;;;;;;13.80;13.00;;;;;;;;5028563;28;8872;-78
2023/10/13 08:48:31;;;;;;;;;14.60;13.00;;;;;;;;5030761;28;8914;-77
2023/10/13 08:51:09;;;;;;;;;13.00;13.00;;;;;;;;5031073;28;8860;-78
2023/10/13 08:53:51;;;;;;;;;17.60;17.60;;;;;;;;5031015;28;8840;-75
2023/10/13 08:56:18;;;;;;;;;14.20;14.20;;;;;;;;5031490;28;8872;-76
2023/10/13 09:01:45;;;;;;;;;13.60;11.60;;;;;;;;5027333;28;9575;-76
2023/10/13 09:04:21;;;;;;;;;14.20;12.80;;;;;;;;5031586;28;8882;-77
2023/10/13 09:07:08;;;;;;;;;6.00;6.00;;;;;;;;5029977;28;9371;-76
2023/10/13 09:10:11;;;;;;;;;13.00;13.00;;;;;;;;5032180;28;8975;-77
2023/10/13 09:12:42;;;;;;;;;11.80;11.00;;;;;;;;5034579;28;8998;-77
2023/10/13 09:18:12;;;;;;;;;13.80;13.20;;;;;;;;5034184;28;8926;-76
2023/10/13 09:20:45;;;;;;;;;10.80;10.80;;;;;;;;5035362;28;8888;-78
2023/10/13 09:23:23;;;;;;;;;12.20;12.20;;;;;;;;5029992;28;8844;-77
2023/10/13 09:25:57;;;;;;;;;13.60;13.60;;;;;;;;5030237;28;8868;-76
2023/10/13 09:28:25;;;;;;;;;15.80;12.60;;;;;;;;5030360;28;8852;-76
2023/10/13 09:30:56;;;;;;;;;11.00;10.00;;;;;;;;5029724;28;9626;-76
2023/10/13 09:33:32;;;;;;;;;11.60;11.40;;;;;;;;5030421;28;8852;-77
2023/10/13 09:36:00;;;;;;;;;13.40;10.60;;;;;;;;5030144;28;8871;-78
2023/10/13 09:38:31;;;;;;;;;15.40;15.40;;;;;;;;5026535;28;8945;-76
2023/10/13 09:41:01;;;;;;;;;15.20;13.40;;;;;;;;5029718;28;8914;-81
2023/10/13 09:43:30;;;;;;;;;11.80;9.00;;;;;;;;5030011;28;8875;-76
2023/10/13 09:46:04;;;;;;;;;13.00;11.60;;;;;;;;5030045;28;8882;-77
2023/10/13 09:48:34;;;;;;;;;12.40;12.40;;;;;;;;5029686;28;8876;-77
2023/10/13 09:51:04;;;;;;;;;12.60;9.60;;;;;;;;5030006;28;9005;-76
2023/10/13 09:53:31;;;;;;;;;17.80;17.80;;;;;;;;5030034;28;8888;-77
2023/10/13 09:56:13;;;;;;;;;11.00;10.80;;;;;;;;5029927;28;8872;-77
2023/10/13 09:58:50;;;;;;;;;11.60;11.60;;;;;;;;5028988;28;8840;-77
2023/10/13 10:01:21;;;;;;;;;12.00;9.80;;;;;;;;5030425;28;8799;-76
2023/10/13 10:04:08;;;;;;;;;11.80;11.80;;;;;;;;5030020;28;8855;-77
2023/10/13 10:06:43;;;;;;;;;15.40;14.40;;;;;;;;5028426;28;8836;-77
2023/10/13 10:09:11;;;;;;;;;11.80;11.80;;;;;;;;5031783;28;8860;-76
2023/10/13 10:12:05;;;;;;;;;8.40;8.40;;;;;;;;5029864;28;8856;-76
2023/10/13 10:14:48;;;;;;;;;10.80;9.80;;;;;;;;5029270;28;8867;-79
2023/10/13 10:17:15;;;;;;;;;12.40;11.80;;;;;;;;5030187;28;8858;-77
2023/10/13 10:19:54;;;;;;;;;11.40;11.40;;;;;;;;5028826;28;8864;-72
2023/10/13 10:22:33;;;;;;;;;15.00;12.00;;;;;;;;5029232;28;8888;-75
2023/10/13 10:25:01;;;;;;;;;10.80;9.40;;;;;;;;5018311;28;8856;-75
2023/10/13 10:27:30;;;;;;;;;12.00;11.60;;;;;;;;5028814;28;8903;-73
2023/10/13 10:30:01;;;;;;;;;9.80;9.80;;;;;;;;5029390;28;8868;-73
2023/10/13 10:32:40;;;;;;;;;12.40;11.40;;;;;;;;5028856;28;8839;-73
2023/10/13 10:35:20;;;;;;;;;12.60;12.00;;;;;;;;5029511;28;8987;-74
2023/10/13 10:37:48;;;;;;;;;4.40;4.40;;;;;;;;5028197;28;8942;-74
2023/10/13 10:40:31;;;;;;;;;13.20;9.80;;;;;;;;5029132;28;8867;-76
2023/10/13 10:43:00;;;;;;;;;10.80;10.80;;;;;;;;5029658;28;8943;-77
2023/10/13 10:45:32;;;;;;;;;13.60;12.00;;;;;;;;5028522;28;8860;-76
2023/10/13 10:48:01;;;;;;;;;8.40;8.40;;;;;;;;5029979;28;8928;-77
2023/10/13 10:50:34;;;;;;;;;10.80;10.80;;;;;;;;5030690;28;9608;-77
2023/10/13 10:53:08;;;;;;;;;8.40;8.40;;;;;;;;5031975;28;8880;-75
2023/10/13 10:55:36;;;;;;;;;11.80;9.20;;;;;;;;5031937;28;8883;-76
2023/10/13 10:58:06;;;;;;;;;10.20;10.20;;;;;;;;5032556;28;9646;-75
2023/10/13 11:03:14;;;;;;;;;11.60;8.60;;;;;;;;5026675;28;8872;-73
2023/10/13 11:05:46;;;;;;;;;10.60;10.60;;;;;;;;5028726;28;8897;-74
2023/10/13 11:08:31;;;;;;;;;10.00;8.40;;;;;;;;5028009;28;8982;-75
2023/10/13 11:11:00;;;;;;;;;9.80;8.60;;;;;;;;5028317;28;8872;-74
2023/10/13 11:13:30;;;;;;;;;8.00;8.00;;;;;;;;5027666;28;9715;-74
2023/10/13 11:15:58;;;;;;;;;8.80;8.80;;;;;;;;5028660;28;8868;-76
2023/10/13 11:18:38;;;;;;;;;11.40;8.60;;;;;;;;5016400;28;8860;-79
2023/10/13 11:21:07;;;;;;;;;10.60;10.60;;;;;;;;5028172;28;8844;-74
2023/10/13 11:23:36;;;;;;;;;11.00;10.40;;;;;;;;5028170;28;8840;-77
2023/10/13 11:26:04;;;;;;;;;10.80;10.80;;;;;;;;5028047;28;8882;-74
2023/10/13 11:28:34;;;;;;;;;8.20;8.20;;;;;;;;5028333;28;8867;-76
2023/10/13 11:31:10;;;;;;;;;7.00;7.00;;;;;;;;5027736;28;8824;-74
2023/10/13 11:33:46;;;;;;;;;11.00;11.00;;;;;;;;5028234;28;8860;-73
2023/10/13 11:36:17;;;;;;;;;9.00;9.00;;;;;;;;5016589;28;8879;-76
2023/10/13 11:38:49;;;;;;;;;9.80;9.80;;;;;;;;5024804;28;8856;-76
2023/10/13 11:41:18;;;;;;;;;11.80;9.00;;;;;;;;5028381;28;8888;-74
2023/10/13 11:44:05;;;;;;;;;13.40;11.60;;;;;;;;5028124;28;8971;-74
2023/10/13 11:49:31;;;;;;;;;11.00;11.00;;;;;;;;5017413;28;8828;-77
2023/10/13 11:54:41;;;;;;;;;12.00;12.00;;;;;;;;5025981;28;8887;-75
2023/10/13 11:57:09;;;;;;;;;12.40;11.20;;;;;;;;5027602;28;8872;-75
2023/10/13 11:59:44;;;;;;;;;14.40;9.60;;;;;;;;5027758;28;8879;-77
2023/10/13 12:04:57;;;;;;;;;8.80;7.80;;;;;;;;5027278;28;8848;-75
2023/10/13 12:07:40;;;;;;;;;12.80;11.20;;;;;;;;5027341;28;9727;-76
2023/10/13 12:10:15;;;;;;;;;10.20;10.00;;;;;;;;5027556;28;8863;-75
2023/10/13 12:12:43;;;;;;;;;11.20;11.00;;;;;;;;5027250;28;9684;-73
2023/10/13 12:15:14;;;;;;;;;8.80;8.00;;;;;;;;5027427;28;8872;-75
2023/10/13 12:17:44;;;;;;;;;10.00;10.00;;;;;;;;5027815;28;8856;-73
2023/10/13 12:20:18;;;;;;;;;8.60;8.00;;;;;;;;5027998;28;8839;-74
2023/10/13 12:22:55;;;;;;;;;10.60;10.20;;;;;;;;5027816;28;8925;-75
2023/10/13 12:25:34;;;;;;;;;11.80;10.00;;;;;;;;5027707;28;9687;-76
2023/10/13 12:28:12;;;;;;;;;14.60;9.80;;;;;;;;5027745;28;8878;-76
2023/10/13 12:30:49;;;;;;;;;11.80;10.20;;;;;;;;5029181;28;8807;-76
2023/10/13 12:33:24;;;;;;;;;9.00;7.80;;;;;;;;5031599;28;8852;-79
2023/10/13 12:36:03;;;;;;;;;10.00;8.40;;;;;;;;5032192;28;8852;-76
2023/10/13 12:38:51;;;;;;;;;10.60;7.40;;;;;;;;5027315;28;8868;-74
2023/10/13 12:49:52;;;;;;;;;9.60;8.00;;;;;;;;5020197;28;8868;-76
2023/10/13 12:52:26;;;;;;;;;10.00;7.40;;;;;;;;5026988;28;9878;-75
2023/10/13 12:57:44;;;;;;;;;7.40;7.40;;;;;;;;5013583;28;9033;-78
2023/10/13 13:00:25;;;;;;;;;7.60;7.60;;;;;;;;5017921;28;8878;-77
2023/10/13 13:02:55;;;;;;;;;8.00;6.20;;;;;;;;5039840;28;8891;-77
2023/10/13 13:05:28;;;;;;;;;7.20;6.40;;;;;;;;5025385;28;8846;-77
2023/10/13 13:07:55;;;;;;;;;6.60;6.00;;;;;;;;5026663;28;8860;-77
2023/10/13 13:10:34;;;;;;;;;7.60;7.00;;;;;;;;5027211;28;8892;-77
2023/10/13 13:13:03;;;;;;;;;12.20;6.60;;;;;;;;5027090;28;8927;-77
2023/10/13 13:15:30;;;;;;;;;10.20;8.80;;;;;;;;5026986;28;8860;-77
2023/10/13 13:17:58;;;;;;;;;9.00;8.40;;;;;;;;5025822;28;8963;-77
2023/10/13 13:20:29;;;;;;;;;8.80;8.80;;;;;;;;5026888;28;8898;-76
2023/10/13 13:23:02;;;;;;;;;10.60;7.20;;;;;;;;5027042;28;8860;-75
2023/10/13 13:25:32;;;;;;;;;7.20;6.40;;;;;;;;5027052;28;8864;-77
2023/10/13 13:28:05;;;;;;;;;7.60;7.60;;;;;;;;5026573;28;8868;-76
2023/10/13 13:30:35;;;;;;;;;10.00;6.60;;;;;;;;5026243;28;9527;-77
2023/10/13 13:33:10;;;;;;;;;6.40;6.40;;;;;;;;5029041;28;8868;-77
2023/10/13 13:35:38;;;;;;;;;9.60;7.80;;;;;;;;5030121;28;8858;-78
2023/10/13 13:38:16;;;;;;;;;6.60;6.60;;;;;;;;5030706;28;8985;-76
2023/10/13 13:40:48;;;;;;;;;6.20;6.20;;;;;;;;5030082;28;8904;-77
2023/10/13 13:43:31;;;;;;;;;7.00;5.20;;;;;;;;5031066;28;8875;-76
2023/10/13 13:46:00;;;;;;;;;5.80;5.80;;;;;;;;5029428;28;9725;-76
2023/10/13 13:48:28;;;;;;;;;6.00;6.00;;;;;;;;5030286;28;8852;-76
2023/10/13 13:51:03;;;;;;;;;8.80;8.80;;;;;;;;5030360;28;9667;-76
2023/10/13 13:53:34;;;;;;;;;5.80;5.80;;;;;;;;5029951;28;8860;-76
2023/10/13 13:56:03;;;;;;;;;7.40;7.40;;;;;;;;5030867;28;8868;-76
2023/10/13 13:58:30;;;;;;;;;13.20;8.00;;;;;;;;5029183;28;9040;-75
2023/10/13 14:01:11;;;;;;;;;4.40;4.40;;;;;;;;5036797;28;8819;-76
2023/10/13 14:03:44;;;;;;;;;7.80;7.40;;;;;;;;5029905;28;8857;-76
2023/10/13 14:06:17;;;;;;;;;4.60;4.60;;;;;;;;5030052;28;8900;-75
2023/10/13 14:08:48;;;;;;;;;6.60;6.60;;;;;;;;5019766;28;8842;-75
2023/10/13 14:14:04;;;;;;;;;9.60;7.00;;;;;;;;5034290;28;8853;-77
2023/10/13 14:16:33;;;;;;;;;5.00;5.00;;;;;;;;5021822;28;8857;-75
2023/10/13 14:19:02;;;;;;;;;6.00;6.00;;;;;;;;5034530;28;8877;-76
2023/10/13 14:21:29;;;;;;;;;9.60;8.00;;;;;;;;5030716;28;8921;-76
2023/10/13 14:23:56;;;;;;;;;8.60;6.60;;;;;;;;5030030;28;8931;-75
2023/10/13 14:26:25;;;;;;;;;6.40;6.40;;;;;;;;5029116;28;8854;-76
2023/10/13 14:29:00;;;;;;;;;6.60;6.60;;;;;;;;5029363;28;8854;-78
2023/10/13 14:31:27;;;;;;;;;7.80;7.80;;;;;;;;5017309;28;8794;-75
2023/10/13 14:33:54;;;;;;;;;8.20;7.60;;;;;;;;5029369;28;8846;-76
2023/10/13 14:36:22;;;;;;;;;8.00;8.00;;;;;;;;5029440;28;8957;-76
2023/10/13 14:38:50;;;;;;;;;9.60;8.00;;;;;;;;5025240;28;8841;-76
2023/10/13 14:41:23;;;;;;;;;8.20;8.20;;;;;;;;5030099;28;8846;-78
2023/10/13 14:43:51;;;;;;;;;14.20;9.60;;;;;;;;5028764;28;8845;-77
2023/10/13 14:46:22;;;;;;;;;11.00;9.80;;;;;;;;5030143;28;9760;-77
2023/10/13 14:48:52;;;;;;;;;7.80;7.80;;;;;;;;5029202;28;8849;-76
2023/10/13 14:51:20;;;;;;;;;8.60;8.60;;;;;;;;5029520;28;8871;-76
2023/10/13 14:53:48;;;;;;;;;11.00;9.60;;;;;;;;5029264;28;8850;-77
2023/10/13 14:56:17;;;;;;;;;8.80;7.80;;;;;;;;5029710;28;8884;-78
2023/10/13 14:58:46;;;;;;;;;10.00;9.00;;;;;;;;5029344;28;8853;-76
2023/10/13 15:01:16;;;;;;;;;9.40;9.40;;;;;;;;5028771;28;8789;-77
2023/10/13 15:03:43;;;;;;;;;10.60;7.40;;;;;;;;5029053;28;8844;-77
2023/10/13 15:06:20;;;;;;;;;10.20;8.80;;;;;;;;5028702;28;8868;-77
2023/10/13 15:08:48;;;;;;;;;12.80;9.80;;;;;;;;5018437;28;8913;-78
2023/10/13 15:11:18;;;;;;;;;10.20;9.00;;;;;;;;5028494;28;8941;-77
2023/10/13 15:13:48;;;;;;;;;9.00;8.60;;;;;;;;5029483;28;8851;-77
2023/10/13 15:16:21;;;;;;;;;8.60;8.60;;;;;;;;5027376;28;9631;-77
2023/10/13 15:18:51;;;;;;;;;11.80;10.60;;;;;;;;5020206;28;8860;-77
2023/10/13 15:21:21;;;;;;;;;9.80;9.20;;;;;;;;5018329;28;8906;-76
2023/10/13 15:23:51;;;;;;;;;8.20;8.20;;;;;;;;5029665;28;8855;-79
2023/10/13 15:26:23;;;;;;;;;11.40;9.80;;;;;;;;5028460;28;8876;-80
2023/10/13 15:28:53;;;;;;;;;11.00;10.80;;;;;;;;5028697;28;9689;-77
2023/10/13 15:31:37;;;;;;;;;9.80;9.80;;;;;;;;5031692;28;8802;-77
2023/10/13 15:34:06;;;;;;;;;6.00;6.00;;;;;;;;5028167;28;8927;-78
2023/10/13 15:36:34;;;;;;;;;11.00;10.20;;;;;;;;5018189;28;8916;-77
2023/10/13 15:39:02;;;;;;;;;9.80;8.00;;;;;;;;5028364;28;9000;-77
2023/10/13 15:41:30;;;;;;;;;10.00;10.00;;;;;;;;5028395;28;8868;-77
2023/10/13 15:43:57;;;;;;;;;15.00;11.80;;;;;;;;5028438;28;8884;-77
2023/10/13 15:46:26;;;;;;;;;12.00;9.00;;;;;;;;5028683;28;8854;-76
2023/10/13 15:48:55;;;;;;;;;10.00;10.00;;;;;;;;5027255;28;8854;-76
2023/10/13 15:51:22;;;;;;;;;15.00;12.60;;;;;;;;5024133;28;8865;-76
2023/10/13 15:53:51;;;;;;;;;10.60;10.60;;;;;;;;5031024;28;8841;-76
2023/10/13 15:56:21;;;;;;;;;8.80;8.80;;;;;;;;5031147;28;8881;-76
2023/10/13 15:58:49;;;;;;;;;9.00;9.00;;;;;;;;5031163;28;8862;-76
2023/10/13 16:01:23;;;;;;;;;12.40;11.40;;;;;;;;5028091;28;8818;-80
2023/10/13 16:03:51;;;;;;;;;9.80;9.80;;;;;;;;5031739;28;8892;-76
2023/10/13 16:06:25;;;;;;;;;13.60;12.20;;;;;;;;5027276;28;8869;-76
2023/10/13 16:08:53;;;;;;;;;10.80;9.00;;;;;;;;5028063;28;8875;-77
2023/10/13 16:11:20;;;;;;;;;11.20;10.80;;;;;;;;5027265;28;9667;-75
2023/10/13 16:13:50;;;;;;;;;12.20;12.20;;;;;;;;5028378;28;8845;-75
2023/10/13 16:16:18;;;;;;;;;8.60;8.60;;;;;;;;5028098;28;8886;-77
2023/10/13 16:18:47;;;;;;;;;8.80;8.00;;;;;;;;5029020;28;8862;-76
2023/10/13 16:21:15;;;;;;;;;12.80;11.80;;;;;;;;5027789;28;8850;-78
2023/10/13 16:23:45;;;;;;;;;10.00;10.00;;;;;;;;5027631;28;8873;-78
2023/10/13 16:26:13;;;;;;;;;9.20;9.20;;;;;;;;5027104;28;8858;-77
2023/10/13 16:28:40;;;;;;;;;14.40;10.60;;;;;;;;5027472;28;8861;-76
2023/10/13 16:31:08;;;;;;;;;13.00;10.20;;;;;;;;5027142;28;9631;-78
2023/10/13 16:33:35;;;;;;;;;8.40;8.40;;;;;;;;5027521;28;9667;-77
2023/10/13 16:36:05;;;;;;;;;8.20;8.20;;;;;;;;5027336;28;8868;-75
2023/10/13 16:38:35;;;;;;;;;11.40;11.40;;;;;;;;5023344;28;8861;-75
2023/10/13 16:41:05;;;;;;;;;16.40;13.00;;;;;;;;5027160;28;8868;-73
2023/10/13 16:43:35;;;;;;;;;15.00;13.20;;;;;;;;5026993;28;8881;-74
2023/10/13 16:46:03;;;;;;;;;14.80;13.20;;;;;;;;5028190;28;8904;-73
2023/10/13 16:48:31;;;;;;;;;12.40;12.00;;;;;;;;5026695;28;8909;-73
2023/10/13 16:51:05;;;;;;;;;12.60;12.60;;;;;;;;5027412;28;8982;-73
2023/10/13 16:53:33;;;;;;;;;10.60;10.00;;;;;;;;5026554;28;8876;-75
2023/10/13 16:56:01;;;;;;;;;10.80;10.80;;;;;;;;5027500;28;8874;-77
2023/10/13 16:58:30;;;;;;;;;11.20;9.20;;;;;;;;5026715;28;8877;-75
2023/10/13 17:00:57;;;;;;;;;10.40;9.00;;;;;;;;5026782;28;8802;-76
2023/10/13 17:03:29;;;;;;;;;16.40;13.60;;;;;;;;5026796;28;8861;-77
2023/10/13 17:05:56;;;;;;;;;14.00;11.20;;;;;;;;5016434;28;9636;-76
2023/10/13 17:08:23;;;;;;;;;17.40;13.80;;;;;;;;5029272;28;8866;-75
2023/10/13 17:10:52;;;;;;;;;11.80;11.00;;;;;;;;5031287;28;9286;-78
2023/10/13 17:13:22;;;;;;;;;15.20;12.00;;;;;;;;5030650;28;8892;-76
2023/10/13 17:15:51;;;;;;;;;14.60;12.80;;;;;;;;5031827;28;8899;-74
2023/10/13 17:18:18;;;;;;;;;14.60;13.00;;;;;;;;5030923;28;8833;-74
2023/10/13 17:20:48;;;;;;;;;13.00;11.80;;;;;;;;5030987;28;8874;-74
2023/10/13 17:23:16;;;;;;;;;16.60;16.40;;;;;;;;5031074;28;8850;-76
2023/10/13 17:25:43;;;;;;;;;18.40;15.00;;;;;;;;5030793;28;9004;-75
2023/10/13 17:28:15;;;;;;;;;12.00;12.00;;;;;;;;5032704;28;8850;-74
2023/10/13 17:30:43;;;;;;;;;15.20;15.20;;;;;;;;5032902;28;8798;-75